Point Roberts, Washington
Current Conditions -  °F | °C
As of 7:00 PM on Monday 22 Dec 2014 (Local Time) from CYVR Reporting Station
Overcast Overcast  
Wind Chill: 40°   Ceiling: 12000
Heat Index: 43°   Visibility: 15mi
Dew Point: 39°   Wind: 5mph
Humidity: 87%   Direction: 60°ENE
Pressure: 30.39"   Gusts: NA
Location:  48.99°N, 123.08°W
Report Text: CYVR 230300Z 06004KT 15SM FEW010 OVC120 06/04 A3039 RMK SF1AC7 SLP289
Loading
Personal Weather Stations






























Interactive Weather Map New forecast layout! Learn more

10-Day Weather Forecast

Advertisements
Track Severe Weather on mobile